Time;durP1;ratioP1;P1;durP2;ratioP2;P2;SDS_P1;SDS_P2;PMS_P1;PMS_P2;Temp;Humidity;BMP_temperature;BMP_pressure;BME280_temperature;BME280_humidity;BME280_pressure;Samples;Min_cycle;Max_cycle;Signal;HPM_P1;HPM_P2
2022/07/29 00:01:52;;;;;;;5.28;1.80;;;;;;;17.24;69.87;100660.20;1816244;77;20926;-72
2022/07/29 00:04:19;;;;;;;5.90;1.82;;;;;;;17.21;70.00;100659.69;1845215;77;20923;-71
2022/07/29 00:06:47;;;;;;;4.30;1.65;;;;;;;17.16;70.05;100666.32;1847499;77;20978;-72
2022/07/29 00:09:14;;;;;;;3.40;1.72;;;;;;;17.14;70.09;100669.66;1847667;77;21029;-71
2022/07/29 00:11:40;;;;;;;4.37;1.80;;;;;;;17.12;70.10;100671.64;1845951;77;21769;-72
2022/07/29 00:14:08;;;;;;;4.08;2.27;;;;;;;17.09;70.16;100671.97;1814224;79;21678;-72
2022/07/29 00:16:36;;;;;;;5.55;1.77;;;;;;;17.09;70.24;100665.80;1814423;79;20958;-72
2022/07/29 00:19:03;;;;;;;4.05;1.90;;;;;;;17.06;70.27;100666.92;1814425;78;21021;-71
2022/07/29 00:21:30;;;;;;;3.80;1.80;;;;;;;17.03;70.32;100669.08;1816382;79;21413;-72
2022/07/29 00:23:57;;;;;;;3.10;1.60;;;;;;;17.00;70.36;100671.57;1816241;79;21496;-72
2022/07/29 00:26:24;;;;;;;3.92;1.70;;;;;;;16.96;70.44;100671.52;1816249;79;21021;-72
2022/07/29 00:28:50;;;;;;;4.53;1.77;;;;;;;16.94;70.52;100669.52;1831821;77;21037;-72
2022/07/29 00:31:17;;;;;;;4.33;1.70;;;;;;;16.92;70.55;100671.51;1820430;77;21037;-73
2022/07/29 00:33:44;;;;;;;2.65;1.50;;;;;;;16.89;70.59;100671.83;1800553;77;21066;-72
2022/07/29 00:36:11;;;;;;;3.85;1.72;;;;;;;16.88;70.69;100672.79;1769352;81;22308;-72
2022/07/29 00:38:41;;;;;;;4.03;1.80;;;;;;;16.85;70.71;100673.11;1799239;79;20980;-70
2022/07/29 00:41:08;;;;;;;2.70;1.75;;;;;;;16.84;70.70;100672.77;1769362;81;21470;-71
2022/07/29 00:43:36;;;;;;;3.17;1.90;;;;;;;16.81;70.72;100671.76;1781794;79;21530;-71
2022/07/29 00:46:02;;;;;;;3.45;2.00;;;;;;;16.80;70.82;100676.26;1773777;79;21419;-72
2022/07/29 00:48:29;;;;;;;3.37;1.72;;;;;;;16.78;70.87;100672.05;1795842;79;21925;-72
2022/07/29 00:50:57;;;;;;;3.85;2.15;;;;;;;16.75;70.95;100670.53;1785971;79;21003;-72
2022/07/29 00:53:25;;;;;;;5.70;1.80;;;;;;;16.73;71.00;100671.69;1815460;77;21474;-72
2022/07/29 00:55:56;;;;;;;4.20;1.80;;;;;;;16.71;71.00;100664.34;1793434;77;20986;-72
2022/07/29 00:58:23;;;;;;;3.47;1.92;;;;;;;16.69;71.07;100666.30;1783386;79;20939;-72
2022/07/29 01:00:50;;;;;;;5.45;2.05;;;;;;;16.65;71.12;100664.92;1783676;80;21869;-72
2022/07/29 01:03:16;;;;;;;3.25;1.90;;;;;;;16.62;71.17;100662.07;1793170;79;20988;-72
2022/07/29 01:05:43;;;;;;;5.00;1.80;;;;;;;16.59;71.17;100659.19;1815484;78;20983;-72
2022/07/29 01:08:12;;;;;;;3.55;2.08;;;;;;;16.57;71.21;100655.02;1800748;79;21042;-72
2022/07/29 01:10:38;;;;;;;4.87;1.90;;;;;;;16.54;71.26;100651.33;1771654;79;20947;-72
2022/07/29 01:13:05;;;;;;;2.85;1.70;;;;;;;16.52;71.27;100654.16;1769264;79;21659;-72
2022/07/29 01:15:34;;;;;;;5.28;2.25;;;;;;;16.51;71.28;100646.31;1781517;79;20971;-72
2022/07/29 01:18:18;;;;;;;3.40;1.90;;;;;;;16.50;71.29;100646.81;1814921;77;20951;-72
2022/07/29 01:21:13;;;;;;;3.83;1.70;;;;;;;16.49;71.22;100646.44;1831487;77;20986;-71
2022/07/29 01:24:00;;;;;;;4.37;1.85;;;;;;;16.48;71.20;100646.59;1803513;77;21073;-72
2022/07/29 01:26:53;;;;;;;2.87;1.77;;;;;;;16.47;71.07;100647.09;1847869;77;21776;-72
2022/07/29 01:29:34;;;;;;;2.58;1.75;;;;;;;16.44;71.12;100643.41;1824794;77;21381;-72
2022/07/29 01:32:11;;;;;;;2.85;1.80;;;;;;;16.40;71.13;100644.69;1847827;77;21038;-72
2022/07/29 01:35:02;;;;;;;2.58;1.70;;;;;;;16.35;71.16;100640.33;1847563;77;21006;-72
2022/07/29 01:37:45;;;;;;;4.60;1.75;;;;;;;16.34;71.19;100638.66;1845415;77;21056;-72
2022/07/29 01:40:28;;;;;;;3.92;1.80;;;;;;;16.31;71.21;100639.80;1847556;77;22959;-71
2022/07/29 01:42:58;;;;;;;2.87;1.75;;;;;;;16.29;71.30;100638.26;1848151;77;28631;-72
2022/07/29 01:45:55;;;;;;;3.40;1.90;;;;;;;16.27;71.35;100643.75;1847504;77;21009;-72
2022/07/29 01:48:25;;;;;;;3.98;1.95;;;;;;;16.25;71.38;100640.41;1823892;77;20954;-72
2022/07/29 01:51:14;;;;;;;3.20;1.87;;;;;;;16.23;71.44;100648.22;1847578;77;21018;-72
2022/07/29 01:54:06;;;;;;;3.27;1.95;;;;;;;16.19;71.37;100646.83;1845772;77;21927;-72
2022/07/29 01:56:33;;;;;;;5.50;2.10;;;;;;;16.14;71.44;100643.79;1814157;79;20954;-72
2022/07/29 01:59:01;;;;;;;4.22;1.90;;;;;;;16.09;71.60;100644.23;1814202;79;21318;-73
2022/07/29 02:01:30;;;;;;;4.33;1.98;;;;;;;16.07;71.70;100642.21;1814236;79;21430;-72
2022/07/29 02:03:56;;;;;;;7.15;2.10;;;;;;;16.04;71.77;100637.20;1834593;76;20994;-73
2022/07/29 02:06:24;;;;;;;6.80;2.67;;;;;;;16.02;71.88;100636.02;1847512;77;21982;-71
2022/07/29 02:08:51;;;;;;;4.42;1.92;;;;;;;16.00;71.91;100635.80;1815214;77;20942;-71
2022/07/29 02:11:18;;;;;;;5.40;2.12;;;;;;;15.98;71.92;100637.29;1792778;78;20978;-72
2022/07/29 02:13:46;;;;;;;2.95;2.20;;;;;;;15.96;71.93;100649.09;1814295;79;21586;-72
2022/07/29 02:16:14;;;;;;;5.87;1.98;;;;;;;15.93;71.96;100644.91;1814267;78;20997;-72
2022/07/29 02:18:42;;;;;;;3.90;1.95;;;;;;;15.91;71.96;100649.52;1814187;79;21987;-72
2022/07/29 02:21:08;;;;;;;5.17;2.20;;;;;;;15.90;71.98;100651.01;1815526;78;21010;-72
2022/07/29 02:23:35;;;;;;;3.17;1.90;;;;;;;15.89;72.01;100645.34;1816209;77;21504;-72
2022/07/29 02:26:02;;;;;;;4.65;2.10;;;;;;;15.90;72.05;100648.34;1815184;77;20989;-72
2022/07/29 02:28:29;;;;;;;5.12;1.90;;;;;;;15.89;72.03;100646.67;1817344;77;20945;-72
2022/07/29 02:30:59;;;;;;;5.65;2.02;;;;;;;15.88;72.01;100649.83;1816357;78;22519;-72
2022/07/29 02:33:26;;;;;;;3.55;1.90;;;;;;;15.88;72.04;100649.00;1816154;79;20977;-72
2022/07/29 02:35:54;;;;;;;3.60;2.05;;;;;;;15.87;72.03;100646.83;1816327;79;21048;-72
2022/07/29 02:41:11;;;;;;;7.28;2.20;;;;;;;15.85;72.08;100648.81;1849658;77;20978;-72
2022/07/29 02:43:39;;;;;;;4.58;2.17;;;;;;;15.83;72.16;100649.45;1849550;77;22536;-71
2022/07/29 02:46:07;;;;;;;5.42;1.77;;;;;;;15.83;72.20;100653.95;1820445;77;21456;-72
2022/07/29 02:48:38;;;;;;;5.30;2.10;;;;;;;15.82;72.21;100655.74;1831539;77;21020;-72
2022/07/29 02:51:15;;;;;;;3.35;1.82;;;;;;;15.81;72.16;100647.91;1806038;79;20997;-72
2022/07/29 02:53:42;;;;;;;5.33;2.30;;;;;;;15.80;72.12;100643.08;1806935;79;20942;-72
2022/07/29 02:56:13;;;;;;;5.75;2.02;;;;;;;15.81;72.13;100643.91;1780039;79;21934;-72
2022/07/29 02:58:47;;;;;;;5.62;1.80;;;;;;;15.81;72.13;100652.73;1806939;79;20910;-72
2022/07/29 03:01:16;;;;;;;3.08;1.90;;;;;;;15.80;72.13;100659.55;1806350;79;21397;-72
2022/07/29 03:03:45;;;;;;;2.92;1.87;;;;;;;15.78;72.18;100657.53;1799531;77;21049;-72
2022/07/29 03:06:14;;;;;;;3.20;1.72;;;;;;;15.77;72.27;100665.19;1849482;77;21005;-72
2022/07/29 03:08:40;;;;;;;4.35;1.77;;;;;;;15.76;72.34;100668.34;1840976;77;21820;-72
2022/07/29 03:11:08;;;;;;;3.17;1.80;;;;;;;15.74;72.44;100675.65;1816482;78;20982;-72
2022/07/29 03:13:35;;;;;;;3.27;1.92;;;;;;;15.74;72.57;100671.66;1816217;78;21539;-72
2022/07/29 03:16:02;;;;;;;5.35;2.30;;;;;;;15.76;72.64;100675.50;1816933;77;21006;-73
2022/07/29 03:18:30;;;;;;;5.85;2.22;;;;;;;15.78;72.65;100676.17;1849015;77;20990;-72
2022/07/29 03:20:57;;;;;;;3.92;2.00;;;;;;;15.79;72.69;100672.03;1816626;77;22212;-72
2022/07/29 03:23:25;;;;;;;2.17;1.82;;;;;;;15.81;72.77;100670.05;1816219;79;21021;-72
2022/07/29 03:25:52;;;;;;;2.67;2.00;;;;;;;15.84;72.83;100671.11;1816242;78;20989;-73
2022/07/29 03:28:19;;;;;;;3.45;1.92;;;;;;;15.88;72.90;100671.14;1816261;78;20997;-73
2022/07/29 03:30:46;;;;;;;5.83;1.70;;;;;;;15.92;73.00;100668.55;1816577;79;21030;-72
2022/07/29 03:33:13;;;;;;;5.22;1.85;;;;;;;15.94;73.02;100667.89;1816467;79;21462;-72
2022/07/29 03:35:39;;;;;;;5.92;2.83;;;;;;;15.99;73.06;100665.60;1817872;77;20939;-72
2022/07/29 03:38:06;;;;;;;4.00;1.80;;;;;;;16.02;73.15;100671.15;1823254;77;21033;-72
2022/07/29 03:40:53;;;;;;;3.02;1.87;;;;;;;16.06;73.21;100661.02;1822407;77;20947;-72
2022/07/29 03:43:21;;;;;;;5.65;1.85;;;;;;;16.11;73.28;100664.05;1816796;79;21416;-71
2022/07/29 03:45:50;;;;;;;7.05;2.02;;;;;;;16.15;73.41;100657.45;1816835;79;22872;-73
2022/07/29 03:48:20;;;;;;;3.33;2.00;;;;;;;16.21;73.52;100663.50;1835880;77;21014;-71
2022/07/29 03:50:50;;;;;;;5.15;1.92;;;;;;;16.29;73.73;100659.58;1850060;77;20970;-71
2022/07/29 03:53:18;;;;;;;4.00;1.70;;;;;;;16.35;73.86;100665.66;1839694;77;21423;-71
2022/07/29 03:55:49;;;;;;;3.67;1.90;;;;;;;16.43;73.99;100667.06;1816605;79;21014;-71
2022/07/29 03:58:16;;;;;;;4.17;1.80;;;;;;;16.53;74.20;100667.83;1817107;79;21815;-71
2022/07/29 04:00:44;;;;;;;2.67;1.95;;;;;;;16.64;74.33;100668.58;1816546;79;21088;-72
2022/07/29 04:03:11;;;;;;;3.42;2.00;;;;;;;16.76;74.27;100668.70;1840041;77;20977;-72
2022/07/29 04:05:37;;;;;;;3.55;1.82;;;;;;;16.90;74.20;100669.50;1849911;77;20970;-72
2022/07/29 04:08:05;;;;;;;4.70;1.92;;;;;;;17.02;74.14;100667.41;1848571;77;20997;-72
2022/07/29 04:10:31;;;;;;;3.72;2.10;;;;;;;17.12;74.09;100676.98;1833527;77;21940;-72
2022/07/29 04:12:59;;;;;;;3.27;1.75;;;;;;;17.25;74.14;100686.40;1792356;79;20938;-72
2022/07/29 04:15:28;;;;;;;4.08;2.05;;;;;;;17.38;74.11;100676.15;1816659;79;20970;-72
2022/07/29 04:17:55;;;;;;;2.75;2.02;;;;;;;17.50;74.05;100676.21;1816299;79;21444;-73
2022/07/29 04:20:23;;;;;;;3.58;1.85;;;;;;;17.65;73.71;100679.94;1816684;79;21382;-72
2022/07/29 04:22:50;;;;;;;4.00;2.00;;;;;;;17.80;73.61;100681.55;1816592;79;22646;-72
2022/07/29 04:25:17;;;;;;;3.67;2.00;;;;;;;17.94;73.29;100677.41;1816510;79;21038;-73
2022/07/29 04:28:02;;;;;;;3.45;1.60;;;;;;;18.08;72.69;100676.80;1833098;77;20915;-73
2022/07/29 04:30:30;;;;;;;3.12;1.55;;;;;;;18.23;72.06;100682.33;1849677;77;20955;-72
2022/07/29 04:32:57;;;;;;;6.95;1.80;;;;;;;18.39;71.60;100675.69;1849610;77;21473;-73
2022/07/29 04:35:24;;;;;;;5.85;1.67;;;;;;;18.53;71.01;100676.89;1849738;77;21916;-72
2022/07/29 04:37:50;;;;;;;4.42;1.52;;;;;;;18.67;70.58;100678.92;1849406;77;20931;-72
2022/07/29 04:40:17;;;;;;;7.42;1.50;;;;;;;18.81;70.31;100682.77;1846793;77;21045;-72
2022/07/29 04:42:45;;;;;;;6.47;1.75;;;;;;;18.94;69.74;100683.61;1849610;77;21473;-72
2022/07/29 04:45:11;;;;;;;4.42;1.60;;;;;;;19.05;69.00;100684.60;1826821;77;21420;-72
2022/07/29 04:47:37;;;;;;;4.30;1.60;;;;;;;19.16;68.41;100681.56;1821081;77;22451;-73
2022/07/29 04:50:06;;;;;;;5.08;1.82;;;;;;;19.29;68.39;100679.19;1849593;77;21350;-72
2022/07/29 04:52:35;;;;;;;4.65;1.70;;;;;;;19.40;67.82;100674.00;1849602;77;21061;-72
2022/07/29 04:55:05;;;;;;;5.50;1.80;;;;;;;19.52;67.15;100677.98;1849529;77;20981;-72
2022/07/29 04:57:32;;;;;;;2.95;1.80;;;;;;;19.63;66.70;100673.61;1849976;77;20931;-72
2022/07/29 04:59:58;;;;;;;5.40;2.02;;;;;;;19.72;66.36;100673.91;1849610;77;21784;-72
2022/07/29 05:02:24;;;;;;;5.72;1.90;;;;;;;19.83;66.04;100680.73;1826468;77;20996;-72
2022/07/29 05:04:51;;;;;;;5.67;1.92;;;;;;;19.90;65.77;100684.39;1823257;77;20940;-72
2022/07/29 05:07:17;;;;;;;3.98;1.77;;;;;;;19.98;65.29;100680.33;1816435;77;20989;-73
2022/07/29 05:09:45;;;;;;;5.97;1.65;;;;;;;20.07;64.77;100682.95;1840902;77;20970;-72
2022/07/29 05:12:12;;;;;;;6.35;1.60;;;;;;;20.13;64.37;100679.06;1819506;77;21867;-72
2022/07/29 05:14:38;;;;;;;4.67;1.77;;;;;;;20.21;64.08;100683.05;1816181;79;21045;-73
2022/07/29 05:17:06;;;;;;;5.85;1.50;;;;;;;20.29;63.73;100686.19;1816373;79;20946;-73
2022/07/29 05:19:34;;;;;;;3.00;1.70;;;;;;;20.38;63.33;100691.00;1844399;77;21025;-71
2022/07/29 05:22:02;;;;;;;8.60;1.70;;;;;;;20.44;63.11;100688.95;1849632;77;21392;-72
2022/07/29 05:24:28;;;;;;;7.08;1.87;;;;;;;20.51;62.29;100697.47;1849607;77;21910;-72
2022/07/29 05:26:55;;;;;;;7.40;1.50;;;;;;;20.57;61.89;100696.77;1849778;77;21492;-72
2022/07/29 05:29:22;;;;;;;3.92;2.00;;;;;;;20.65;61.72;100693.16;1849585;77;20942;-72
2022/07/29 05:31:51;;;;;;;6.97;1.85;;;;;;;20.76;61.30;100699.98;1849500;77;20923;-72
2022/07/29 05:34:18;;;;;;;5.42;1.60;;;;;;;20.86;61.10;100698.72;1849892;77;20994;-72
2022/07/29 05:36:47;;;;;;;3.52;1.60;;;;;;;20.96;60.96;100703.00;1848440;77;21947;-73
2022/07/29 05:39:13;;;;;;;2.83;1.50;;;;;;;21.06;60.59;100707.61;1831798;77;20919;-72
2022/07/29 05:41:40;;;;;;;6.78;1.52;;;;;;;21.11;58.93;100708.72;1816761;77;20946;-72
2022/07/29 05:44:06;;;;;;;5.75;1.50;;;;;;;21.19;58.24;100707.81;1816195;79;20998;-71
2022/07/29 05:46:33;;;;;;;4.35;1.40;;;;;;;21.24;57.75;100704.59;1816269;79;21356;-71
2022/07/29 05:48:59;;;;;;;4.42;1.40;;;;;;;21.29;57.76;100702.20;1816623;77;22632;-71
2022/07/29 05:51:26;;;;;;;5.53;1.32;;;;;;;21.38;57.58;100710.52;1816559;77;21472;-72
2022/07/29 05:53:52;;;;;;;4.62;1.50;;;;;;;21.48;57.24;100704.36;1848973;77;20926;-71
2022/07/29 05:56:19;;;;;;;3.37;1.40;;;;;;;21.55;56.39;100705.80;1849524;77;20939;-71
2022/07/29 05:58:46;;;;;;;4.65;1.47;;;;;;;21.64;56.81;100700.14;1849822;77;21061;-71
2022/07/29 06:01:12;;;;;;;3.92;1.42;;;;;;;21.74;56.61;100701.72;1830753;77;21796;-73
2022/07/29 06:03:41;;;;;;;3.95;1.45;;;;;;;21.84;56.46;100707.13;1816183;79;20978;-72
2022/07/29 06:06:07;;;;;;;2.00;1.27;;;;;;;21.94;56.21;100703.64;1816152;79;21041;-72
2022/07/29 06:08:36;;;;;;;3.08;1.40;;;;;;;22.04;56.15;100702.52;1817127;77;20998;-72
2022/07/29 06:11:03;;;;;;;6.28;1.30;;;;;;;22.14;56.11;100702.56;1846289;77;20962;-72
2022/07/29 06:13:31;;;;;;;4.45;1.40;;;;;;;22.23;55.79;100700.60;1816301;79;21945;-72
2022/07/29 06:15:59;;;;;;;3.95;1.30;;;;;;;22.31;55.52;100701.00;1816074;79;21394;-73
2022/07/29 06:18:27;;;;;;;3.70;1.02;;;;;;;22.38;55.03;100699.20;1816306;79;21021;-72
2022/07/29 06:20:54;;;;;;;4.10;2.08;;;;;;;22.42;54.00;100705.88;1816362;77;21030;-72
2022/07/29 06:23:22;;;;;;;3.37;1.20;;;;;;;22.46;54.14;100709.84;1816297;78;20950;-73
2022/07/29 06:25:48;;;;;;;4.15;1.20;;;;;;;22.53;54.62;100702.16;1820072;77;22579;-73
2022/07/29 06:28:15;;;;;;;7.00;1.20;;;;;;;22.64;54.69;100708.06;1849358;77;21520;-72
2022/07/29 06:30:42;;;;;;;2.25;1.10;;;;;;;22.73;54.79;100701.01;1847323;77;21237;-73
2022/07/29 06:33:09;;;;;;;4.83;1.10;;;;;;;22.84;54.10;100709.11;1848940;77;20942;-72
2022/07/29 06:35:38;;;;;;;4.35;1.40;;;;;;;22.93;53.67;100708.46;1849585;77;21496;-72
2022/07/29 06:38:05;;;;;;;5.20;1.17;;;;;;;23.01;53.59;100711.02;1849440;77;21942;-72
2022/07/29 06:43:18;;;;;;;4.60;1.42;;;;;;;23.26;52.81;100699.28;1837150;77;21029;-72
2022/07/29 06:45:45;;;;;;;6.42;1.37;;;;;;;23.31;51.77;100705.76;1835937;77;21430;-72
2022/07/29 06:48:11;;;;;;;4.65;1.30;;;;;;;23.36;51.74;100699.27;1849491;77;21016;-72
2022/07/29 06:50:38;;;;;;;3.12;1.07;;;;;;;23.45;52.12;100695.91;1821584;77;21878;-72
2022/07/29 06:53:05;;;;;;;3.47;1.10;;;;;;;23.54;52.12;100694.70;1849510;77;20935;-72
2022/07/29 06:55:33;;;;;;;3.80;1.15;;;;;;;23.63;51.64;100688.14;1849589;77;20959;-72
2022/07/29 06:58:00;;;;;;;4.35;1.15;;;;;;;23.72;51.79;100685.28;1849526;77;21028;-72
2022/07/29 07:00:26;;;;;;;3.83;1.05;;;;;;;23.81;51.58;100690.83;1837356;77;20982;-72
2022/07/29 07:02:53;;;;;;;4.17;1.17;;;;;;;23.89;52.13;100679.35;1828326;77;21877;-71
2022/07/29 07:05:19;;;;;;;2.75;1.05;;;;;;;23.99;51.49;100685.72;1849814;77;20994;-72
2022/07/29 07:07:46;;;;;;;4.30;1.30;;;;;;;24.04;51.54;100683.27;1849480;77;20982;-71
2022/07/29 07:10:13;;;;;;;4.58;1.40;;;;;;;24.11;50.98;100686.79;1849457;77;20994;-71
2022/07/29 07:12:39;;;;;;;4.08;1.30;;;;;;;24.20;50.41;100684.22;1847139;77;20938;-71
2022/07/29 07:15:06;;;;;;;3.02;0.90;;;;;;;24.21;48.24;100680.48;1849763;77;21912;-72
2022/07/29 07:17:34;;;;;;;3.60;1.00;;;;;;;24.21;48.62;100679.66;1835294;77;20939;-72
2022/07/29 07:20:00;;;;;;;4.45;1.00;;;;;;;24.26;48.92;100676.67;1789036;79;21037;-72
2022/07/29 07:22:27;;;;;;;4.62;1.10;;;;;;;24.35;48.71;100677.87;1816592;79;20978;-72
2022/07/29 07:24:53;;;;;;;2.77;1.00;;;;;;;24.44;47.62;100682.88;1817653;77;20946;-72
2022/07/29 07:27:21;;;;;;;3.02;1.15;;;;;;;24.52;47.83;100688.61;1816182;79;22623;-72
2022/07/29 07:29:48;;;;;;;3.45;1.10;;;;;;;24.62;47.62;100690.39;1816076;78;20982;-73
2022/07/29 07:32:16;;;;;;;2.45;1.20;;;;;;;24.76;47.55;100691.22;1843168;77;21503;-72
2022/07/29 07:34:43;;;;;;;5.35;1.20;;;;;;;24.85;46.62;100687.28;1833620;77;21397;-72
2022/07/29 07:37:11;;;;;;;4.62;1.12;;;;;;;24.89;46.24;100688.52;1816322;79;20958;-71
2022/07/29 07:39:38;;;;;;;3.35;1.10;;;;;;;24.88;45.53;100692.25;1816230;79;21921;-71
2022/07/29 07:42:05;;;;;;;4.03;1.07;;;;;;;24.89;46.07;100691.21;1816230;79;20982;-71
2022/07/29 07:44:32;;;;;;;4.25;1.20;;;;;;;24.93;45.91;100695.70;1819135;77;20991;-72
2022/07/29 07:46:59;;;;;;;3.10;1.50;;;;;;;24.96;44.91;100695.27;1816187;79;21002;-71
2022/07/29 07:49:26;;;;;;;3.20;1.30;;;;;;;24.89;45.09;100697.97;1816273;79;21002;-72
2022/07/29 07:51:52;;;;;;;5.53;1.32;;;;;;;24.87;44.80;100697.35;1834506;77;21667;-71
2022/07/29 07:54:19;;;;;;;3.75;1.27;;;;;;;24.89;44.67;100698.48;1849533;77;20951;-71
2022/07/29 07:56:48;;;;;;;2.98;1.20;;;;;;;24.91;44.49;100701.84;1849439;77;21045;-72
2022/07/29 07:59:15;;;;;;;3.95;1.07;;;;;;;24.89;44.94;100706.08;1849423;77;20986;-73
2022/07/29 08:01:41;;;;;;;3.10;1.30;;;;;;;24.97;44.57;100713.16;1848730;77;20927;-72
2022/07/29 08:04:08;;;;;;;4.83;1.15;;;;;;;25.04;44.06;100705.91;1849735;77;21880;-72
2022/07/29 08:06:36;;;;;;;6.28;1.60;;;;;;;25.11;44.55;100707.58;1838469;77;21080;-72
2022/07/29 08:09:04;;;;;;;4.40;1.50;;;;;;;25.20;44.07;100716.83;1837363;77;21346;-72
2022/07/29 08:11:32;;;;;;;6.37;5.10;;;;;;;25.27;43.95;100706.30;1849387;77;21157;-72
2022/07/29 08:14:01;;;;;;;4.58;2.75;;;;;;;25.31;42.83;100714.84;1847044;77;20962;-73
2022/07/29 08:16:30;;;;;;;4.90;1.32;;;;;;;25.32;42.58;100709.73;1849472;77;21950;-73
2022/07/29 08:18:56;;;;;;;10.40;1.10;;;;;;;25.38;42.88;100711.58;1849507;77;21005;-72
2022/07/29 08:21:24;;;;;;;3.20;1.20;;;;;;;25.46;42.91;100715.95;1849358;77;20942;-73
2022/07/29 08:23:52;;;;;;;7.22;1.17;;;;;;;25.59;43.23;100714.59;1849385;77;20918;-73
2022/07/29 08:26:19;;;;;;;4.35;1.30;;;;;;;25.71;42.39;100708.02;1824785;77;20985;-72
2022/07/29 08:28:48;;;;;;;6.22;1.40;;;;;;;25.79;43.30;100718.62;1828248;77;21892;-73
2022/07/29 08:31:14;;;;;;;6.62;1.10;;;;;;;25.87;42.85;100708.39;1822087;77;21057;-72
2022/07/29 08:33:41;;;;;;;5.90;1.10;;;;;;;26.00;43.27;100703.44;1822116;78;21430;-72
2022/07/29 08:36:08;;;;;;;2.40;1.05;;;;;;;26.12;42.73;100715.77;1822325;77;21508;-72
2022/07/29 08:38:34;;;;;;;3.72;1.07;;;;;;;26.16;43.14;100717.02;1821985;78;21006;-72
2022/07/29 08:41:01;;;;;;;4.05;1.12;;;;;;;26.20;42.65;100718.23;1822158;77;21792;-72
2022/07/29 08:43:29;;;;;;;3.20;1.05;;;;;;;26.20;42.08;100717.71;1796150;78;21376;-72
2022/07/29 08:45:55;;;;;;;6.05;1.20;;;;;;;26.19;41.88;100723.34;1819714;77;21484;-73
2022/07/29 08:48:22;;;;;;;3.60;1.22;;;;;;;26.13;41.83;100713.36;1822055;77;21037;-73
2022/07/29 08:50:55;;;;;;;1.50;0.82;;;;;;;26.16;42.85;100720.55;1822056;78;21465;-72
2022/07/29 08:53:26;;;;;;;5.35;1.22;;;;;;;26.25;42.89;100715.20;1801695;78;20971;-72
2022/07/29 08:55:53;;;;;;;5.17;1.10;;;;;;;26.32;42.36;100720.55;1789657;79;20943;-72
2022/07/29 08:58:19;;;;;;;4.22;1.02;;;;;;;26.38;41.05;100721.09;1789755;80;20994;-72
2022/07/29 09:00:51;;;;;;;1.82;1.17;;;;;;;26.42;41.39;100720.12;1823621;78;21112;-72
2022/07/29 09:03:22;;;;;;;3.33;1.00;;;;;;;26.49;40.67;100727.69;1825287;78;20924;-71
2022/07/29 09:05:49;;;;;;;1.90;1.00;;;;;;;26.52;39.62;100715.88;1799741;79;22114;-72
2022/07/29 09:08:16;;;;;;;2.05;1.10;;;;;;;26.54;40.45;100719.75;1822050;78;21026;-72
2022/07/29 09:10:43;;;;;;;4.47;1.05;;;;;;;26.64;40.67;100714.69;1808593;77;20955;-72
2022/07/29 09:13:11;;;;;;;3.62;1.20;;;;;;;26.72;39.33;100716.27;1822038;78;21466;-72
2022/07/29 09:15:38;;;;;;;3.98;1.05;;;;;;;26.82;39.49;100712.02;1818615;78;20983;-72
2022/07/29 09:18:06;;;;;;;3.33;1.07;;;;;;;26.95;38.55;100717.06;1790163;78;22599;-72
2022/07/29 09:23:19;;;;;;;2.15;0.95;;;;;;;27.06;36.08;100713.12;1789821;79;20989;-72
2022/07/29 09:25:46;;;;;;;3.87;1.50;;;;;;;26.99;36.69;100715.02;1789961;78;21565;-71
2022/07/29 09:28:14;;;;;;;7.62;1.22;;;;;;;27.10;37.83;100716.22;1799694;78;20928;-71
2022/07/29 09:30:56;;;;;;;4.30;1.10;;;;;;;27.26;37.19;100710.77;1813574;78;22587;-71
2022/07/29 09:33:26;;;;;;;4.28;1.10;;;;;;;27.42;37.55;100711.55;1803019;79;21436;-71
2022/07/29 09:36:06;;;;;;;4.28;0.95;;;;;;;27.60;38.47;100717.50;1814511;77;20939;-72
2022/07/29 09:38:33;;;;;;;1.95;1.00;;;;;;;27.79;36.17;100715.12;1795881;79;21362;-71
2022/07/29 09:41:02;;;;;;;3.17;1.07;;;;;;;27.81;35.13;100708.96;1769351;81;21381;-71
2022/07/29 09:43:28;;;;;;;2.87;1.27;;;;;;;27.83;35.88;100703.30;1799291;78;21773;-72
2022/07/29 09:45:55;;;;;;;3.27;1.17;;;;;;;27.99;37.88;100707.27;1791537;79;21360;-71
2022/07/29 09:48:25;;;;;;;3.25;1.07;;;;;;;28.17;36.69;100706.70;1805268;77;20964;-73
2022/07/29 09:50:52;;;;;;;2.02;1.10;;;;;;;28.35;35.69;100708.59;1800750;79;20975;-72
2022/07/29 09:53:37;;;;;;;2.52;0.98;;;;;;;28.55;35.58;100704.22;1815531;79;21034;-72
2022/07/29 09:56:04;;;;;;;4.47;1.20;;;;;;;28.70;35.46;100704.63;1815260;78;21808;-71
2022/07/29 09:58:35;;;;;;;2.98;1.12;;;;;;;28.84;35.08;100702.52;1793450;79;20912;-71
2022/07/29 10:01:03;;;;;;;3.50;1.12;;;;;;;28.91;35.06;100701.09;1776901;78;21016;-71
2022/07/29 10:03:29;;;;;;;2.37;1.10;;;;;;;28.95;35.41;100699.54;1822086;78;20964;-72
2022/07/29 10:06:09;;;;;;;4.37;1.10;;;;;;;28.97;33.44;100704.23;1821747;78;20976;-71
2022/07/29 10:08:37;;;;;;;2.70;0.98;;;;;;;28.92;34.03;100702.20;1841091;77;21030;-71
2022/07/29 10:11:16;;;;;;;2.30;1.10;;;;;;;28.85;33.79;100700.09;1849746;77;20934;-71
2022/07/29 10:13:44;;;;;;;1.87;0.90;;;;;;;28.82;34.37;100699.73;1849916;77;20948;-70
2022/07/29 10:16:12;;;;;;;4.00;1.10;;;;;;;28.94;34.20;100704.69;1839497;77;21033;-71
2022/07/29 10:18:40;;;;;;;4.15;1.02;;;;;;;29.02;35.20;100700.27;1805378;77;20992;-71
2022/07/29 10:21:07;;;;;;;4.92;1.12;;;;;;;29.16;34.33;100698.98;1779113;77;21908;-72
2022/07/29 10:23:34;;;;;;;4.58;1.30;;;;;;;29.35;34.15;100686.92;1812477;79;20971;-72
2022/07/29 10:26:03;;;;;;;3.20;1.02;;;;;;;29.52;32.38;100688.39;1783207;79;20979;-71
2022/07/29 10:28:31;;;;;;;4.53;1.02;;;;;;;29.52;33.58;100687.56;1800965;79;21008;-71
2022/07/29 10:31:03;;;;;;;3.67;1.27;;;;;;;29.62;31.92;100689.14;1786359;79;21034;-71
2022/07/29 10:33:56;;;;;;;2.25;1.00;;;;;;;29.73;33.77;100690.20;1815333;78;21943;-72
2022/07/29 10:36:42;;;;;;;5.40;1.55;;;;;;;29.96;32.72;100675.15;1815531;77;20935;-72
2022/07/29 10:39:47;;;;;;;2.65;1.20;;;;;;;30.12;32.63;100683.95;1803702;77;21035;-72
2022/07/29 10:42:24;;;;;;;3.20;1.20;;;;;;;30.25;32.11;100686.91;1806700;79;21478;-72
2022/07/29 10:44:51;;;;;;;3.30;1.10;;;;;;;30.28;30.99;100679.59;1815761;79;20940;-72
2022/07/29 10:47:25;;;;;;;3.50;1.10;;;;;;;30.27;31.50;100679.84;1798257;79;21907;-72
2022/07/29 10:50:01;;;;;;;2.67;0.95;;;;;;;30.30;31.08;100675.27;1802431;79;21399;-72
2022/07/29 10:52:53;;;;;;;2.42;0.93;;;;;;;30.42;31.18;100670.59;1815364;77;21003;-72
2022/07/29 10:55:42;;;;;;;3.77;1.25;;;;;;;30.62;31.88;100670.95;1719355;82;21062;-71
2022/07/29 10:58:18;;;;;;;7.62;1.30;;;;;;;30.80;31.32;100662.27;1645038;85;21079;-71
2022/07/29 11:00:52;;;;;;;4.05;1.00;;;;;;;30.94;30.88;100663.58;1743933;79;22406;-72
2022/07/29 11:03:51;;;;;;;2.50;1.10;;;;;;;31.10;31.79;100657.82;1815446;79;21450;-72
2022/07/29 11:06:17;;;;;;;3.67;1.20;;;;;;;31.30;31.45;100663.06;1815301;79;21018;-72
2022/07/29 11:08:43;;;;;;;6.42;1.20;;;;;;;31.49;30.43;100663.59;1812095;79;20940;-72
2022/07/29 11:11:29;;;;;;;2.25;1.10;;;;;;;31.65;29.55;100665.95;1801385;79;20976;-71
2022/07/29 11:13:55;;;;;;;4.00;0.90;;;;;;;31.71;28.82;100662.22;1783136;79;22442;-72
2022/07/29 11:16:24;;;;;;;3.95;1.00;;;;;;;31.71;28.89;100665.49;1756068;80;21321;-72
2022/07/29 11:19:17;;;;;;;4.75;1.20;;;;;;;31.51;28.38;100661.42;1783783;79;21373;-72
2022/07/29 11:21:47;;;;;;;3.15;1.10;;;;;;;31.40;30.41;100664.28;1783634;79;21042;-72
2022/07/29 11:24:18;;;;;;;3.12;1.17;;;;;;;31.38;29.68;100659.62;1783410;80;20943;-71
2022/07/29 11:26:44;;;;;;;3.65;0.90;;;;;;;31.27;29.21;100663.58;1783308;80;21880;-71
2022/07/29 11:29:25;;;;;;;1.65;1.00;;;;;;;31.07;29.95;100664.58;1773194;79;20948;-72
2022/07/29 11:31:54;;;;;;;3.08;1.02;;;;;;;30.97;29.68;100661.16;1779218;80;21012;-72
2022/07/29 11:34:30;;;;;;;4.72;1.30;;;;;;;30.91;30.38;100658.09;1795828;80;20944;-72
2022/07/29 11:37:14;;;;;;;2.70;1.00;;;;;;;30.90;30.13;100657.80;1812498;79;21492;-71
2022/07/29 11:39:56;;;;;;;1.87;1.00;;;;;;;30.97;30.02;100661.16;1749399;82;20949;-71
2022/07/29 11:42:29;;;;;;;3.20;1.12;;;;;;;30.99;30.77;100655.48;1791474;79;21027;-71
2022/07/29 11:45:16;;;;;;;1.45;1.00;;;;;;;31.18;30.95;100655.50;1812502;79;21047;-70